Time;durP1;ratioP1;P1;durP2;ratioP2;P2;SDS_P1;SDS_P2;PMS_P1;PMS_P2;Temp;Humidity;BMP_temperature;BMP_pressure;BME280_temperature;BME280_humidity;BME280_pressure;Samples;Min_cycle;Max_cycle;Signal;HPM_P1;HPM_P2
2021/09/09 00:01:42;;;;;;;1.05;0.60;;;11.50;99.90;;;;;;4990666;28;20061;-72
2021/09/09 00:04:07;;;;;;;1.75;0.57;;;11.50;99.90;;;;;;4990533;28;20025;-73
2021/09/09 00:06:33;;;;;;;0.93;0.50;;;11.50;99.90;;;;;;4990436;28;20029;-73
2021/09/09 00:08:59;;;;;;;0.45;0.45;;;11.50;99.90;;;;;;4990810;28;20034;-73
2021/09/09 00:11:26;;;;;;;0.98;0.60;;;11.40;99.90;;;;;;4990595;28;20098;-73
2021/09/09 00:13:52;;;;;;;1.02;0.63;;;11.30;99.90;;;;;;4990092;28;20566;-73
2021/09/09 00:16:18;;;;;;;0.63;0.50;;;11.30;99.90;;;;;;4989735;28;20058;-73
2021/09/09 00:18:44;;;;;;;0.95;0.55;;;11.20;99.90;;;;;;4990674;28;20397;-73
2021/09/09 00:21:10;;;;;;;0.60;0.60;;;11.20;99.90;;;;;;4990384;28;20026;-73
2021/09/09 00:23:36;;;;;;;1.05;0.55;;;11.10;99.90;;;;;;4990325;28;20524;-73
2021/09/09 00:26:04;;;;;;;1.33;0.50;;;11.10;99.90;;;;;;4990376;28;20053;-73
2021/09/09 00:28:30;;;;;;;0.85;0.68;;;11.00;99.90;;;;;;4990239;28;20545;-73
2021/09/09 00:30:56;;;;;;;1.65;0.65;;;10.90;99.90;;;;;;4990698;28;20034;-73
2021/09/09 00:33:21;;;;;;;3.80;0.60;;;10.80;99.90;;;;;;4990455;28;20392;-73
2021/09/09 00:35:47;;;;;;;3.95;0.57;;;10.80;99.90;;;;;;4990309;28;20389;-73
2021/09/09 00:38:13;;;;;;;2.63;0.60;;;10.70;99.90;;;;;;4990107;28;20470;-74
2021/09/09 00:40:39;;;;;;;1.90;0.50;;;10.70;99.90;;;;;;4990360;28;20033;-74
2021/09/09 00:43:05;;;;;;;1.23;0.70;;;10.70;99.90;;;;;;4990100;28;20030;-74
2021/09/09 00:45:31;;;;;;;0.75;0.50;;;10.70;99.90;;;;;;4989894;28;20034;-74
2021/09/09 00:47:57;;;;;;;1.10;0.50;;;10.70;99.90;;;;;;4990360;28;20446;-74
2021/09/09 00:50:23;;;;;;;1.33;0.73;;;10.80;99.90;;;;;;4990056;28;20026;-73
2021/09/09 00:52:51;;;;;;;1.58;0.60;;;10.80;99.90;;;;;;4989718;28;20119;-73
2021/09/09 00:55:17;;;;;;;0.60;0.60;;;10.80;99.90;;;;;;4989649;28;20038;-74
2021/09/09 00:57:47;;;;;;;0.70;0.50;;;10.80;99.90;;;;;;4989939;28;20109;-73
2021/09/09 01:00:14;;;;;;;0.60;0.60;;;10.80;99.90;;;;;;4989675;28;20762;-73
2021/09/09 01:02:40;;;;;;;0.70;0.50;;;10.70;99.90;;;;;;4990120;28;20138;-74
2021/09/09 01:05:07;;;;;;;0.85;0.60;;;10.70;99.90;;;;;;4989783;28;20553;-74
2021/09/09 01:07:33;;;;;;;1.23;0.70;;;10.60;99.90;;;;;;4989624;28;20050;-74
2021/09/09 01:09:59;;;;;;;0.50;0.50;;;10.60;99.90;;;;;;4989709;28;20065;-73
2021/09/09 01:12:25;;;;;;;2.78;0.60;;;10.60;99.90;;;;;;4989577;28;20022;-72
2021/09/09 01:14:51;;;;;;;2.08;0.73;;;10.60;99.90;;;;;;4989868;28;20043;-72
2021/09/09 01:48:47;;;;;;;0.93;0.60;;;10.00;99.90;;;;;;4992625;28;20050;-73
2021/09/09 01:51:12;;;;;;;1.48;0.63;;;10.10;99.90;;;;;;4992543;28;20033;-73
2021/09/09 01:53:38;;;;;;;0.60;0.60;;;10.00;99.90;;;;;;4992495;28;20054;-73
2021/09/09 01:56:04;;;;;;;0.98;0.50;;;10.00;99.90;;;;;;4992792;28;20035;-73
2021/09/09 01:58:30;;;;;;;1.42;0.50;;;9.80;99.90;;;;;;4992722;28;20474;-73
2021/09/09 02:00:59;;;;;;;0.93;0.57;;;9.70;99.90;;;;;;4992514;28;20107;-73
2021/09/09 02:03:25;;;;;;;8.40;0.65;;;9.60;99.90;;;;;;4992564;28;20038;-73
2021/09/09 02:05:51;;;;;;;2.20;0.55;;;9.60;99.90;;;;;;4992741;28;20436;-73
2021/09/09 02:08:17;;;;;;;0.40;0.40;;;9.60;99.90;;;;;;4992337;28;20030;-73
2021/09/09 02:10:42;;;;;;;1.33;0.50;;;9.70;99.90;;;;;;4992357;28;20110;-73
2021/09/09 02:13:08;;;;;;;0.73;0.63;;;9.70;99.90;;;;;;4992132;28;20034;-73
2021/09/09 02:15:34;;;;;;;1.33;0.80;;;9.60;99.90;;;;;;4992312;28;20038;-73
2021/09/09 02:18:00;;;;;;;1.25;0.60;;;9.40;99.90;;;;;;4992394;28;20027;-73
2021/09/09 02:20:26;;;;;;;5.55;0.75;;;9.30;99.90;;;;;;4992216;28;20022;-73
2021/09/09 02:22:52;;;;;;;2.38;0.70;;;9.20;99.90;;;;;;4992160;28;20031;-71
2021/09/09 02:25:18;;;;;;;2.70;0.63;;;9.10;99.90;;;;;;4991949;28;20296;-72
2021/09/09 02:27:44;;;;;;;0.52;0.52;;;9.10;99.90;;;;;;4992142;28;20062;-72
2021/09/09 02:30:11;;;;;;;0.60;0.60;;;9.20;99.90;;;;;;4991897;28;20018;-72
2021/09/09 02:32:36;;;;;;;3.53;0.80;;;9.30;99.90;;;;;;4992092;28;20492;-73
2021/09/09 02:35:03;;;;;;;2.40;0.40;;;9.30;99.90;;;;;;4991736;28;20178;-73
2021/09/09 02:37:28;;;;;;;3.33;0.60;;;9.30;99.90;;;;;;4991385;28;20049;-73
2021/09/09 02:39:54;;;;;;;1.80;0.77;;;9.20;99.90;;;;;;4991956;28;20458;-72
2021/09/09 02:42:20;;;;;;;0.68;0.60;;;9.10;99.90;;;;;;4991808;28;20030;-72
2021/09/09 02:44:46;;;;;;;0.63;0.50;;;9.10;99.90;;;;;;4991925;28;20110;-72
2021/09/09 02:47:12;;;;;;;1.20;0.68;;;9.10;99.90;;;;;;4991645;28;20088;-72
2021/09/09 02:49:38;;;;;;;1.23;0.77;;;9.10;99.90;;;;;;4991924;28;20034;-72
2021/09/09 02:52:04;;;;;;;0.73;0.60;;;9.10;99.90;;;;;;4991582;28;20023;-72
2021/09/09 02:54:30;;;;;;;4.00;0.70;;;9.00;99.90;;;;;;4991997;28;20034;-72
2021/09/09 02:56:56;;;;;;;0.60;0.60;;;8.90;99.90;;;;;;4991660;28;20018;-71
2021/09/09 02:59:21;;;;;;;2.60;0.70;;;8.70;99.90;;;;;;4991554;28;20034;-71
2021/09/09 03:01:47;;;;;;;1.30;0.60;;;8.70;99.90;;;;;;4991568;28;20019;-71
2021/09/09 03:04:13;;;;;;;5.22;0.65;;;8.60;99.90;;;;;;4991385;28;20030;-71
2021/09/09 03:06:38;;;;;;;0.70;0.60;;;8.60;99.90;;;;;;4991459;28;20030;-72
2021/09/09 03:09:04;;;;;;;2.85;0.70;;;8.60;99.90;;;;;;4991418;28;20033;-71
2021/09/09 03:11:30;;;;;;;4.13;0.70;;;8.60;99.90;;;;;;4991455;28;20038;-71
2021/09/09 03:13:56;;;;;;;0.95;0.60;;;8.60;99.90;;;;;;4991391;28;20034;-71
2021/09/09 03:16:21;;;;;;;1.02;0.50;;;8.60;99.90;;;;;;4991227;28;20113;-71
2021/09/09 03:18:47;;;;;;;1.20;0.70;;;8.50;99.90;;;;;;4990281;28;20038;-72
2021/09/09 03:21:13;;;;;;;0.63;0.60;;;8.50;99.90;;;;;;4991215;28;20136;-72
2021/09/09 03:23:39;;;;;;;2.33;0.90;;;8.40;99.90;;;;;;4991414;28;20105;-72
2021/09/09 03:26:05;;;;;;;1.80;0.70;;;8.50;99.90;;;;;;4991445;28;20466;-72
2021/09/09 03:28:30;;;;;;;1.92;0.55;;;8.50;99.90;;;;;;4991599;28;20526;-72
2021/09/09 03:30:56;;;;;;;1.42;0.70;;;8.50;99.90;;;;;;4991248;28;20489;-72
2021/09/09 03:33:22;;;;;;;0.50;0.50;;;8.50;99.90;;;;;;4990860;28;20034;-72
2021/09/09 03:35:48;;;;;;;1.23;0.65;;;8.40;99.90;;;;;;4991367;28;20044;-72
2021/09/09 03:38:13;;;;;;;0.75;0.70;;;8.40;99.90;;;;;;4991231;28;20095;-71
2021/09/09 03:40:40;;;;;;;0.75;0.63;;;8.40;99.90;;;;;;4991052;28;20026;-71
2021/09/09 03:43:06;;;;;;;0.95;0.63;;;8.40;99.90;;;;;;4990908;28;20125;-72
2021/09/09 03:45:32;;;;;;;2.38;0.63;;;8.40;99.90;;;;;;4990928;28;20022;-73
2021/09/09 03:47:58;;;;;;;1.05;0.70;;;8.40;99.90;;;;;;4990991;28;20371;-73
2021/09/09 03:50:24;;;;;;;1.23;0.60;;;8.30;99.90;;;;;;4990748;28;20034;-73
2021/09/09 03:52:49;;;;;;;1.77;0.60;;;8.20;99.90;;;;;;4990517;28;20387;-73
2021/09/09 03:55:15;;;;;;;0.93;0.60;;;8.20;99.90;;;;;;4990512;28;20143;-72
2021/09/09 03:57:41;;;;;;;2.30;0.70;;;8.20;99.90;;;;;;4990713;28;20030;-71
2021/09/09 04:00:08;;;;;;;4.43;0.85;;;8.20;99.90;;;;;;4990660;28;20023;-71
2021/09/09 04:02:33;;;;;;;5.13;0.80;;;8.20;99.90;;;;;;4990564;28;20429;-71
2021/09/09 04:04:59;;;;;;;1.80;0.80;;;8.20;99.90;;;;;;4990612;28;20029;-71
2021/09/09 04:07:25;;;;;;;4.57;1.00;;;8.20;99.90;;;;;;4990739;28;20035;-70
2021/09/09 04:09:51;;;;;;;0.77;0.70;;;8.20;99.90;;;;;;4990933;28;20027;-70
2021/09/09 04:12:17;;;;;;;2.72;0.80;;;8.30;99.90;;;;;;4989193;28;20366;-70
2021/09/09 04:14:42;;;;;;;1.00;0.60;;;8.30;99.90;;;;;;4990606;28;20060;-69
2021/09/09 04:17:08;;;;;;;1.45;0.60;;;8.30;99.90;;;;;;4990398;28;20482;-70
2021/09/09 04:19:34;;;;;;;1.77;0.70;;;8.30;99.90;;;;;;4990414;28;20030;-70
2021/09/09 04:22:02;;;;;;;0.95;0.65;;;8.30;99.90;;;;;;4990330;28;20022;-70
2021/09/09 04:24:28;;;;;;;1.27;0.80;;;8.40;99.90;;;;;;4990178;28;20045;-69
2021/09/09 04:26:54;;;;;;;1.48;0.75;;;8.40;99.90;;;;;;4990189;28;20541;-69
2021/09/09 04:29:20;;;;;;;3.15;0.60;;;8.50;99.90;;;;;;4990125;28;20034;-70
2021/09/09 04:31:46;;;;;;;0.95;0.60;;;8.50;99.90;;;;;;4990090;28;20072;-71
2021/09/09 04:34:12;;;;;;;0.85;0.60;;;8.60;99.90;;;;;;4989905;28;20034;-70
2021/09/09 04:36:38;;;;;;;0.70;0.60;;;8.70;99.90;;;;;;4988922;28;20019;-69
2021/09/09 04:39:03;;;;;;;0.52;0.50;;;8.70;99.90;;;;;;4990276;28;20031;-70
2021/09/09 04:41:29;;;;;;;0.60;0.60;;;9.10;99.90;;;;;;4989940;28;20026;-69
2021/09/09 04:43:55;;;;;;;1.70;0.47;;;9.50;99.90;;;;;;4990189;28;20397;-67
2021/09/09 04:46:21;;;;;;;0.70;0.60;;;9.90;99.90;;;;;;4989964;28;20565;-66
2021/09/09 04:48:47;;;;;;;1.85;0.60;;;10.20;99.90;;;;;;4990011;28;20026;-66
2021/09/09 04:51:12;;;;;;;1.50;0.60;;;10.10;99.90;;;;;;4990114;28;20064;-66
2021/09/09 04:53:38;;;;;;;2.38;0.60;;;10.00;99.90;;;;;;4989608;28;20054;-66
2021/09/09 04:56:04;;;;;;;0.55;0.50;;;9.90;99.90;;;;;;4989809;28;20037;-68
2021/09/09 04:58:30;;;;;;;0.85;0.60;;;9.80;99.90;;;;;;4989817;28;20023;-66
2021/09/09 05:00:56;;;;;;;1.60;0.80;;;9.70;99.90;;;;;;4989229;28;20022;-67
2021/09/09 05:03:21;;;;;;;4.63;0.60;;;9.60;99.90;;;;;;4990090;28;20026;-67
2021/09/09 05:05:47;;;;;;;0.70;0.50;;;9.50;99.90;;;;;;4989717;28;20062;-67
2021/09/09 05:08:13;;;;;;;3.30;0.70;;;9.40;99.90;;;;;;4990071;28;20027;-67
2021/09/09 05:10:40;;;;;;;4.88;1.60;;;9.40;99.90;;;;;;4990069;28;20030;-67
2021/09/09 05:13:06;;;;;;;1.42;0.65;;;9.30;99.90;;;;;;4989537;28;20058;-67
2021/09/09 05:15:31;;;;;;;1.25;0.50;;;9.30;99.90;;;;;;4989464;28;20054;-67
2021/09/09 05:17:58;;;;;;;4.55;0.70;;;9.20;99.90;;;;;;4989495;28;20034;-67
2021/09/09 05:20:24;;;;;;;1.17;0.68;;;9.20;99.90;;;;;;4988488;28;20027;-68
2021/09/09 05:22:50;;;;;;;0.63;0.60;;;9.30;99.90;;;;;;4989800;28;20065;-66
2021/09/09 05:25:16;;;;;;;0.98;0.60;;;9.30;99.90;;;;;;4989351;28;20033;-66
2021/09/09 05:27:42;;;;;;;5.03;0.70;;;9.30;99.90;;;;;;4989760;28;20034;-66
2021/09/09 05:30:09;;;;;;;1.02;0.60;;;9.30;99.90;;;;;;4989768;28;20557;-66
2021/09/09 05:32:35;;;;;;;0.85;0.70;;;9.30;99.90;;;;;;4989563;28;20402;-66
2021/09/09 05:35:01;;;;;;;1.67;0.70;;;9.30;99.90;;;;;;4989589;28;20042;-66
2021/09/09 05:37:27;;;;;;;1.60;0.60;;;9.30;99.90;;;;;;4987924;28;20026;-67
2021/09/09 05:39:53;;;;;;;2.60;0.50;;;9.30;99.90;;;;;;4989267;28;20033;-67
2021/09/09 05:42:20;;;;;;;0.70;0.65;;;9.30;99.90;;;;;;4989096;28;20098;-67
2021/09/09 05:44:46;;;;;;;7.40;0.60;;;9.40;99.90;;;;;;4987958;28;20034;-67
2021/09/09 05:47:11;;;;;;;0.70;0.70;;;9.60;99.90;;;;;;4989099;28;20025;-67
2021/09/09 05:49:37;;;;;;;1.75;0.70;;;9.80;99.90;;;;;;4989540;28;20066;-67
2021/09/09 05:52:04;;;;;;;3.88;0.85;;;10.00;99.90;;;;;;4989230;28;20026;-68
2021/09/09 05:54:34;;;;;;;3.65;0.60;;;10.10;99.90;;;;;;4989160;28;20554;-68
2021/09/09 05:57:01;;;;;;;2.00;0.60;;;10.10;99.90;;;;;;4989217;28;20405;-67
2021/09/09 05:59:27;;;;;;;1.88;0.80;;;10.10;99.90;;;;;;4989027;28;20450;-67
2021/09/09 06:01:53;;;;;;;2.13;0.50;;;10.10;99.90;;;;;;4989013;28;20022;-67
2021/09/09 06:04:20;;;;;;;1.15;0.57;;;10.10;99.90;;;;;;4988976;28;20028;-68
2021/09/09 06:06:47;;;;;;;2.88;0.90;;;10.20;99.90;;;;;;4989105;28;20481;-71
2021/09/09 06:09:14;;;;;;;3.35;0.95;;;10.40;99.90;;;;;;4989039;28;20048;-68
2021/09/09 06:11:40;;;;;;;1.38;0.55;;;11.80;99.90;;;;;;4989001;28;20026;-67
2021/09/09 06:14:05;;;;;;;4.20;0.60;;;12.30;99.90;;;;;;4991398;28;20034;-68
2021/09/09 06:16:32;;;;;;;5.05;0.73;;;12.30;99.90;;;;;;4992403;28;20140;-68
2021/09/09 06:18:58;;;;;;;0.70;0.50;;;12.30;99.90;;;;;;4992256;28;20510;-68
2021/09/09 06:21:24;;;;;;;1.75;0.80;;;12.40;99.90;;;;;;4992003;28;20127;-68
2021/09/09 06:23:50;;;;;;;0.98;0.60;;;12.40;99.90;;;;;;4992103;28;20484;-68
2021/09/09 06:26:19;;;;;;;1.52;0.70;;;12.50;99.90;;;;;;4991929;28;20030;-68
2021/09/09 06:28:46;;;;;;;5.23;0.50;;;12.50;99.90;;;;;;4992024;28;20030;-67
2021/09/09 06:31:12;;;;;;;1.80;0.40;;;12.50;99.90;;;;;;4991828;28;20276;-68
2021/09/09 06:33:38;;;;;;;0.88;0.40;;;12.50;99.90;;;;;;4991998;28;20039;-68
2021/09/09 06:36:05;;;;;;;4.40;0.50;;;12.50;99.90;;;;;;4992214;28;20091;-69
2021/09/09 06:38:31;;;;;;;0.57;0.57;;;12.50;99.90;;;;;;4992077;28;20227;-69
2021/09/09 06:40:57;;;;;;;4.47;0.55;;;12.50;99.90;;;;;;4991801;28;20397;-69
2021/09/09 06:43:22;;;;;;;3.55;0.70;;;12.40;99.90;;;;;;4991852;28;20019;-69
2021/09/09 06:45:48;;;;;;;1.63;0.40;;;12.40;99.90;;;;;;4991812;28;20432;-69
2021/09/09 06:48:14;;;;;;;1.95;0.50;;;12.50;99.90;;;;;;4991405;28;20470;-69
2021/09/09 06:50:40;;;;;;;0.47;0.40;;;12.50;99.90;;;;;;4991584;28;20026;-69
2021/09/09 06:53:06;;;;;;;1.30;0.50;;;12.50;99.90;;;;;;4991250;28;20421;-69
2021/09/09 06:55:32;;;;;;;1.40;0.55;;;12.50;99.90;;;;;;4991387;28;20039;-71
2021/09/09 06:57:58;;;;;;;1.48;0.63;;;12.60;99.90;;;;;;4991701;28;20022;-68
2021/09/09 07:00:24;;;;;;;2.53;0.80;;;12.70;99.90;;;;;;4991407;28;20477;-68
2021/09/09 07:02:50;;;;;;;2.42;0.40;;;12.90;99.90;;;;;;4991335;28;20064;-68
2021/09/09 07:05:16;;;;;;;1.10;0.35;;;12.90;99.90;;;;;;4991309;28;20022;-69
2021/09/09 07:07:42;;;;;;;3.92;0.50;;;12.90;99.90;;;;;;4991269;28;20030;-66
2021/09/09 07:10:09;;;;;;;2.53;0.40;;;12.80;99.90;;;;;;4991586;28;20022;-68
2021/09/09 07:12:36;;;;;;;1.95;0.40;;;12.70;99.90;;;;;;4991303;28;20478;-68
2021/09/09 07:15:03;;;;;;;2.10;0.50;;;12.70;99.90;;;;;;4991192;28;20048;-68
2021/09/09 07:17:29;;;;;;;1.17;0.38;;;12.60;99.90;;;;;;4991222;28;20022;-68
2021/09/09 07:19:55;;;;;;;1.95;0.40;;;12.60;99.90;;;;;;4991405;28;20029;-68
2021/09/09 07:22:21;;;;;;;2.22;0.60;;;12.60;99.90;;;;;;4991277;28;20027;-68
2021/09/09 07:24:47;;;;;;;2.90;0.40;;;12.60;99.90;;;;;;4990917;28;20022;-66
2021/09/09 07:27:13;;;;;;;1.17;0.47;;;12.60;99.90;;;;;;4991184;28;20022;-67
2021/09/09 07:29:39;;;;;;;2.70;0.40;;;12.70;99.90;;;;;;4991059;28;20030;-67
2021/09/09 07:32:05;;;;;;;0.93;0.40;;;12.70;99.90;;;;;;4991320;28;20026;-67
2021/09/09 07:34:31;;;;;;;1.13;0.50;;;12.80;99.90;;;;;;4990872;28;20129;-67
2021/09/09 07:36:57;;;;;;;0.30;0.30;;;12.80;99.90;;;;;;4991148;28;20094;-67
2021/09/09 07:39:23;;;;;;;6.82;0.73;;;12.80;99.90;;;;;;4991013;28;20029;-67
2021/09/09 07:41:49;;;;;;;1.23;0.47;;;12.70;99.90;;;;;;4991011;28;20026;-67
2021/09/09 07:44:15;;;;;;;3.97;1.02;;;12.70;99.90;;;;;;4991177;28;20079;-67
2021/09/09 07:46:41;;;;;;;1.60;0.40;;;12.70;99.90;;;;;;4990762;28;20022;-67
2021/09/09 07:49:08;;;;;;;3.35;0.43;;;12.70;99.90;;;;;;4990852;28;20031;-67
2021/09/09 07:51:35;;;;;;;1.25;0.30;;;12.70;99.90;;;;;;4990570;28;20052;-67
2021/09/09 07:54:00;;;;;;;2.15;0.40;;;12.70;99.90;;;;;;4990473;28;20046;-67
2021/09/09 07:56:26;;;;;;;0.30;0.30;;;12.70;99.90;;;;;;4990849;28;20035;-67
2021/09/09 07:58:52;;;;;;;1.00;0.40;;;12.80;99.90;;;;;;4990685;28;20049;-68
2021/09/09 08:01:19;;;;;;;3.50;0.50;;;12.80;99.90;;;;;;4990286;28;20014;-68
2021/09/09 08:03:46;;;;;;;2.17;0.43;;;12.90;99.90;;;;;;4990581;28;20521;-68
2021/09/09 08:06:12;;;;;;;0.35;0.30;;;12.90;99.90;;;;;;4990479;28;20491;-68
2021/09/09 08:08:38;;;;;;;3.50;0.38;;;12.90;99.90;;;;;;4990428;28;20034;-68
2021/09/09 08:11:03;;;;;;;1.20;0.40;;;12.90;99.90;;;;;;4990478;28;20029;-68
2021/09/09 08:13:29;;;;;;;1.10;0.40;;;13.00;99.90;;;;;;4990104;28;20026;-68
2021/09/09 08:15:55;;;;;;;3.45;0.40;;;13.00;99.90;;;;;;4989188;28;20110;-69
2021/09/09 08:18:21;;;;;;;0.80;0.40;;;13.00;99.90;;;;;;4990576;28;20018;-66
2021/09/09 08:20:47;;;;;;;1.25;0.32;;;13.00;99.90;;;;;;4990356;28;20500;-66
2021/09/09 08:23:13;;;;;;;1.05;0.30;;;13.00;99.90;;;;;;4990334;28;20026;-67
2021/09/09 08:25:39;;;;;;;2.17;0.40;;;13.00;99.90;;;;;;4990243;28;20057;-67
2021/09/09 08:28:04;;;;;;;1.17;0.40;;;13.00;99.90;;;;;;4990160;28;20034;-68
2021/09/09 08:30:30;;;;;;;1.20;0.30;;;13.00;99.90;;;;;;4990115;28;20061;-68
2021/09/09 08:32:56;;;;;;;2.88;0.47;;;13.00;99.90;;;;;;4990122;28;20023;-69
2021/09/09 08:35:23;;;;;;;0.45;0.30;;;13.00;99.90;;;;;;4989144;28;20034;-67
2021/09/09 08:37:50;;;;;;;2.20;0.47;;;13.10;99.90;;;;;;4990164;28;20036;-67
2021/09/09 08:40:16;;;;;;;1.58;0.40;;;13.20;99.90;;;;;;4990156;28;20037;-68
2021/09/09 08:42:43;;;;;;;0.85;0.30;;;13.30;99.90;;;;;;4989753;28;20053;-67
2021/09/09 08:45:13;;;;;;;2.00;0.40;;;13.50;99.90;;;;;;4989875;28;20029;-68
2021/09/09 08:47:40;;;;;;;3.78;0.40;;;13.60;99.90;;;;;;4990158;28;20045;-68
2021/09/09 08:50:07;;;;;;;2.08;0.60;;;13.50;99.90;;;;;;4990007;28;20502;-68
2021/09/09 08:52:33;;;;;;;0.80;0.40;;;13.60;99.90;;;;;;4989514;28;20494;-68
2021/09/09 08:55:01;;;;;;;0.40;0.30;;;13.60;99.90;;;;;;4990154;28;20081;-68
2021/09/09 08:57:29;;;;;;;0.30;0.30;;;13.70;99.50;;;;;;4989747;28;20089;-68
2021/09/09 08:59:55;;;;;;;0.50;0.30;;;13.70;99.10;;;;;;4990186;28;20038;-68
2021/09/09 09:02:21;;;;;;;0.65;0.30;;;13.70;98.50;;;;;;4990039;28;20437;-66
2021/09/09 09:05:02;;;;;;;1.73;0.70;;;13.70;98.10;;;;;;4990124;28;20030;-69
2021/09/09 09:07:32;;;;;;;4.25;0.40;;;13.60;98.10;;;;;;4989788;28;20023;-69
2021/09/09 09:09:59;;;;;;;;;;;13.70;98.50;;;;;;4990239;28;20034;-69
2021/09/09 09:12:44;;;;;;;2.10;0.30;;;13.70;97.90;;;;;;4990176;28;19909;-69
2021/09/09 09:15:28;;;;;;;1.38;0.50;;;13.70;98.10;;;;;;4989844;28;20084;-69
2021/09/09 09:18:02;;;;;;;1.40;0.38;;;13.70;98.10;;;;;;4989593;28;20022;-69
2021/09/09 09:20:47;;;;;;;0.90;0.35;;;13.70;98.10;;;;;;4989476;28;20046;-69
2021/09/09 09:23:27;;;;;;;0.77;0.30;;;13.70;97.80;;;;;;4989722;28;20037;-68
2021/09/09 09:25:56;;;;;;;1.35;0.40;;;13.70;98.00;;;;;;4989605;28;20084;-69
2021/09/09 09:28:40;;;;;;;0.52;0.25;;;13.70;97.80;;;;;;4989515;28;20046;-69
2021/09/09 09:31:22;;;;;;;0.30;0.30;;;13.70;97.80;;;;;;4989705;28;20030;-69
2021/09/09 09:33:55;;;;;;;2.25;0.30;;;13.80;97.90;;;;;;4989600;28;20126;-69
2021/09/09 09:36:27;;;;;;;2.42;0.30;;;13.80;97.60;;;;;;4989538;28;20160;-69
2021/09/09 09:39:17;;;;;;;0.85;0.60;;;13.90;97.90;;;;;;4989374;28;20524;-69
2021/09/09 09:41:52;;;;;;;0.60;0.30;;;13.90;97.50;;;;;;4998123;28;20072;-68
2021/09/09 09:44:26;;;;;;;0.85;0.30;;;14.00;97.20;;;;;;4989237;28;20033;-68
2021/09/09 09:46:52;;;;;;;3.22;0.40;;;14.00;97.70;;;;;;4990091;28;20037;-68
2021/09/09 09:49:28;;;;;;;2.20;0.40;;;14.10;97.00;;;;;;4992959;28;20018;-68
2021/09/09 09:51:56;;;;;;;0.98;0.60;;;14.20;97.30;;;;;;4992606;28;20037;-69
2021/09/09 09:54:26;;;;;;;2.20;0.40;;;14.20;96.60;;;;;;4992436;28;20051;-68
2021/09/09 09:56:53;;;;;;;2.08;0.90;;;14.30;95.70;;;;;;4992796;28;20029;-68
2021/09/09 09:59:20;;;;;;;1.38;0.40;;;14.30;96.10;;;;;;4992544;28;20042;-69
2021/09/09 10:01:47;;;;;;;3.35;0.40;;;14.30;96.00;;;;;;4992186;28;20069;-69
2021/09/09 10:04:21;;;;;;;0.30;0.20;;;14.30;95.70;;;;;;4992610;28;20105;-69
2021/09/09 10:06:49;;;;;;;0.43;0.28;;;14.30;95.60;;;;;;4992217;28;20033;-69
2021/09/09 10:09:16;;;;;;;1.75;0.50;;;14.30;95.40;;;;;;4992358;28;20038;-69
2021/09/09 10:11:43;;;;;;;1.58;0.25;;;14.40;96.20;;;;;;4992109;28;20033;-70
2021/09/09 10:14:15;;;;;;;2.20;0.40;;;14.40;96.90;;;;;;4992167;28;20072;-69
2021/09/09 10:16:43;;;;;;;2.95;0.40;;;14.60;96.80;;;;;;4992119;28;20102;-69
2021/09/09 10:19:21;;;;;;;2.35;0.68;;;14.60;96.10;;;;;;4991024;28;20038;-69
2021/09/09 10:21:48;;;;;;;3.60;0.20;;;14.50;95.60;;;;;;4992372;28;20089;-69
2021/09/09 10:24:20;;;;;;;5.95;0.38;;;14.50;95.60;;;;;;4992323;28;20062;-69
2021/09/09 10:26:48;;;;;;;1.27;0.32;;;14.80;99.00;;;;;;4992094;28;20068;-69
2021/09/09 10:29:53;;;;;;;0.38;0.20;;;14.80;96.10;;;;;;4992145;28;20030;-69
2021/09/09 10:32:35;;;;;;;0.90;0.30;;;14.70;94.60;;;;;;4992024;28;20022;-69
2021/09/09 10:35:16;;;;;;;1.08;0.50;;;14.60;94.50;;;;;;4991973;28;20068;-69
2021/09/09 10:37:55;;;;;;;2.35;0.30;;;14.60;94.20;;;;;;4991931;28;20031;-69
2021/09/09 10:40:31;;;;;;;1.70;0.50;;;14.60;94.40;;;;;;4992208;28;20050;-69
2021/09/09 10:43:03;;;;;;;2.05;0.35;;;14.60;94.20;;;;;;4991673;28;20258;-69
2021/09/09 10:45:37;;;;;;;1.25;0.30;;;14.60;93.70;;;;;;4991766;28;20030;-69
2021/09/09 10:48:05;;;;;;;1.88;0.30;;;14.50;92.60;;;;;;4991833;28;20186;-69
2021/09/09 10:50:32;;;;;;;6.70;0.50;;;14.50;92.80;;;;;;4991654;28;20027;-69
2021/09/09 10:53:09;;;;;;;0.68;0.30;;;14.50;93.00;;;;;;4991174;28;20111;-70
2021/09/09 10:55:40;;;;;;;3.15;0.47;;;14.50;92.20;;;;;;4991419;28;20123;-69
2021/09/09 10:58:14;;;;;;;5.32;0.60;;;14.50;92.20;;;;;;4991223;28;20019;-69
2021/09/09 11:01:01;;;;;;;4.03;0.43;;;14.50;92.40;;;;;;4991643;28;20022;-75
2021/09/09 11:03:42;;;;;;;1.02;0.25;;;14.60;97.40;;;;;;4991245;28;20482;-69
2021/09/09 11:06:14;;;;;;;1.70;0.30;;;15.20;96.90;;;;;;4991638;28;20029;-69
2021/09/09 11:08:42;;;;;;;1.40;0.30;;;15.10;93.10;;;;;;4991234;28;20034;-69
2021/09/09 11:11:13;;;;;;;0.80;0.25;;;15.00;92.00;;;;;;4991566;28;20026;-69
2021/09/09 11:13:39;;;;;;;1.35;0.30;;;14.90;92.60;;;;;;4991116;28;20054;-69
2021/09/09 11:16:22;;;;;;;0.63;0.30;;;14.90;91.80;;;;;;4991540;28;20034;-69
2021/09/09 11:18:48;;;;;;;4.07;0.32;;;14.80;91.40;;;;;;4991055;28;20030;-68
2021/09/09 11:21:22;;;;;;;1.38;0.20;;;14.90;92.30;;;;;;4991197;28;20050;-68
2021/09/09 11:23:56;;;;;;;2.05;0.30;;;14.90;91.90;;;;;;4991045;28;20493;-68
2021/09/09 11:26:22;;;;;;;0.90;0.30;;;14.90;90.90;;;;;;4991292;28;20075;-69
2021/09/09 11:28:49;;;;;;;2.58;0.30;;;14.90;91.10;;;;;;4991054;28;20034;-69
2021/09/09 11:31:17;;;;;;;4.80;0.30;;;14.90;90.00;;;;;;4991130;28;20034;-68
2021/09/09 11:33:53;;;;;;;0.63;0.28;;;14.90;90.00;;;;;;4990713;28;20044;-69
2021/09/09 11:36:24;;;;;;;0.98;0.40;;;14.80;88.20;;;;;;4991060;28;20083;-69
2021/09/09 11:38:53;;;;;;;1.45;0.25;;;14.80;89.80;;;;;;4991236;28;20086;-68
2021/09/09 11:41:21;;;;;;;0.82;0.22;;;14.90;88.40;;;;;;4990983;28;20385;-68
2021/09/09 11:43:52;;;;;;;1.00;0.35;;;14.90;88.00;;;;;;4990810;28;20027;-69
2021/09/09 11:46:37;;;;;;;0.43;0.10;;;14.90;87.20;;;;;;4989871;28;20474;-68
2021/09/09 11:49:11;;;;;;;1.63;0.32;;;14.90;86.00;;;;;;4991184;28;20060;-68
2021/09/09 11:51:40;;;;;;;5.95;0.60;;;14.90;85.50;;;;;;4990776;28;20044;-69
2021/09/09 11:54:17;;;;;;;1.05;0.20;;;15.00;93.40;;;;;;4990522;28;20398;-68
2021/09/09 11:56:43;;;;;;;0.47;0.20;;;15.20;88.20;;;;;;4995471;28;20027;-68
2021/09/09 11:59:17;;;;;;;3.97;0.30;;;15.20;85.80;;;;;;5008493;28;20026;-68
2021/09/09 12:01:43;;;;;;;0.50;0.30;;;15.20;85.30;;;;;;5010193;28;20501;-68
2021/09/09 12:04:11;;;;;;;1.75;0.20;;;15.20;86.30;;;;;;5010384;28;20426;-68
2021/09/09 12:06:38;;;;;;;8.57;0.60;;;15.10;87.30;;;;;;5010006;28;20029;-68
2021/09/09 12:09:04;;;;;;;2.55;0.32;;;15.20;86.90;;;;;;5008741;28;20026;-68
2021/09/09 12:11:33;;;;;;;0.43;0.20;;;15.20;87.30;;;;;;5008988;28;20534;-68
2021/09/09 12:14:17;;;;;;;1.33;0.30;;;15.20;85.40;;;;;;5009870;28;20036;-69
2021/09/09 12:16:43;;;;;;;0.70;0.22;;;15.20;85.70;;;;;;5009776;28;20026;-69
2021/09/09 12:19:11;;;;;;;2.17;0.30;;;15.20;86.20;;;;;;5025268;28;20023;-69
2021/09/09 12:21:54;;;;;;;0.95;0.25;;;15.20;87.20;;;;;;5079102;28;20031;-69
2021/09/09 12:24:28;;;;;;;2.75;0.28;;;15.20;86.50;;;;;;5009744;28;20050;-70
2021/09/09 12:26:59;;;;;;;2.50;0.30;;;15.20;86.20;;;;;;5009454;28;20022;-73
2021/09/09 12:29:33;;;;;;;4.88;0.32;;;15.20;88.00;;;;;;5009306;28;20038;-71
2021/09/09 12:31:59;;;;;;;4.95;0.50;;;15.30;91.30;;;;;;5009402;28;20046;-72
2021/09/09 12:34:25;;;;;;;4.47;0.30;;;15.30;88.40;;;;;;5009131;28;20072;-71
2021/09/09 12:36:51;;;;;;;8.35;0.73;;;15.30;92.70;;;;;;5009210;28;20277;-70
2021/09/09 12:39:19;;;;;;;6.47;0.65;;;15.50;92.50;;;;;;5009026;28;20026;-70
2021/09/09 12:41:46;;;;;;;3.80;0.40;;;15.60;90.50;;;;;;5009199;28;20083;-71
2021/09/09 12:44:15;;;;;;;4.13;0.40;;;15.50;91.60;;;;;;5009332;28;20079;-70
2021/09/09 12:46:50;;;;;;;6.50;0.50;;;15.60;91.80;;;;;;5009122;28;20108;-71
2021/09/09 12:49:21;;;;;;;3.15;0.30;;;15.50;88.70;;;;;;5009109;28;20030;-71
2021/09/09 12:51:56;;;;;;;1.35;0.30;;;15.50;88.20;;;;;;5008737;28;20014;-77
2021/09/09 12:54:23;;;;;;;2.20;0.40;;;15.40;88.10;;;;;;5008948;28;20118;-72
2021/09/09 12:56:53;;;;;;;4.78;0.40;;;15.70;93.00;;;;;;5008979;28;20026;-71
2021/09/09 12:59:23;;;;;;;11.73;0.90;;;15.70;90.20;;;;;;5008856;28;20033;-69
2021/09/09 13:01:49;;;;;;;7.30;0.40;;;15.60;89.30;;;;;;5008999;28;20026;-69
2021/09/09 13:04:15;;;;;;;3.00;0.40;;;15.50;88.50;;;;;;5009185;28;20066;-69
2021/09/09 13:06:41;;;;;;;26.90;0.60;;;15.50;88.40;;;;;;5007614;28;20026;-69
2021/09/09 13:09:07;;;;;;;17.33;1.70;;;15.50;88.20;;;;;;5007507;28;20021;-69
2021/09/09 13:11:36;;;;;;;4.70;0.65;;;15.50;88.00;;;;;;5008829;28;20482;-69
2021/09/09 13:14:02;;;;;;;12.15;1.60;;;15.50;87.60;;;;;;5008761;28;20061;-68
2021/09/09 13:16:28;;;;;;;4.97;0.50;;;15.50;86.60;;;;;;5009020;28;20062;-70
2021/09/09 13:18:54;;;;;;;2.90;0.20;;;15.50;86.30;;;;;;5009106;28;20022;-69
2021/09/09 13:21:28;;;;;;;1.38;0.13;;;15.40;86.20;;;;;;5009194;28;20026;-70
2021/09/09 13:23:54;;;;;;;2.92;0.20;;;15.40;85.70;;;;;;4992568;28;20434;-70
2021/09/09 13:26:21;;;;;;;1.25;0.20;;;15.50;85.90;;;;;;4997300;28;20366;-69